createdAt,value
2018-07-04T00:00:30.093Z,1.63
2018-07-04T00:03:09.096Z,2.10
2018-07-04T00:05:48.188Z,1.87
2018-07-04T00:08:27.418Z,1.87
2018-07-04T00:11:06.518Z,1.60
2018-07-04T00:13:45.521Z,1.80
2018-07-04T00:16:24.833Z,1.70
2018-07-04T00:19:04.177Z,1.70
2018-07-04T00:21:43.433Z,2.00
2018-07-04T00:24:22.589Z,1.63
2018-07-04T00:27:01.817Z,1.70
2018-07-04T00:29:41.203Z,1.80
2018-07-04T00:32:20.260Z,1.63
2018-07-04T00:34:59.418Z,2.53
2018-07-04T00:37:33.105Z,2.10
2018-07-04T00:40:12.175Z,1.73
2018-07-04T00:42:51.517Z,1.87
2018-07-04T00:45:30.818Z,1.73
2018-07-04T00:48:09.967Z,1.80
2018-07-04T00:50:49.300Z,1.90
2018-07-04T00:53:28.313Z,2.00
2018-07-04T00:56:01.879Z,1.83
2018-07-04T00:58:41.502Z,1.70
2018-07-04T01:01:20.809Z,2.00
2018-07-04T01:04:00.090Z,1.67
2018-07-04T01:06:39.393Z,1.80
2018-07-04T01:09:18.546Z,1.87
2018-07-04T01:11:57.797Z,1.83
2018-07-04T01:14:36.714Z,1.90
2018-07-04T01:17:16.265Z,2.20
2018-07-04T01:19:55.335Z,2.00
2018-07-04T01:22:34.593Z,1.90
2018-07-04T01:25:13.674Z,1.90
2018-07-04T01:27:52.786Z,2.00
2018-07-04T01:30:26.298Z,1.90
2018-07-04T01:33:05.403Z,1.80
2018-07-04T01:35:44.584Z,2.07
2018-07-04T01:38:23.770Z,1.63
2018-07-04T01:41:02.849Z,2.00
2018-07-04T01:43:42.098Z,2.00
2018-07-04T01:46:21.306Z,1.70
2018-07-04T01:49:00.606Z,2.00
2018-07-04T01:51:39.845Z,1.80
2018-07-04T01:54:18.885Z,2.00
2018-07-04T01:56:58.119Z,1.80
2018-07-04T01:59:37.314Z,2.00
2018-07-04T02:02:17.446Z,2.00
2018-07-04T02:04:56.575Z,1.93
2018-07-04T02:07:35.836Z,1.70
2018-07-04T02:10:14.895Z,1.80
2018-07-04T02:12:53.966Z,1.67
2018-07-04T02:15:33.105Z,2.13
2018-07-04T02:18:12.460Z,2.10
2018-07-04T02:20:51.771Z,2.70
2018-07-04T02:23:30.767Z,2.03
2018-07-04T02:26:09.743Z,2.00
2018-07-04T02:28:49.132Z,1.93
2018-07-04T02:31:28.146Z,2.10
2018-07-04T02:34:07.277Z,1.97
2018-07-04T02:36:46.358Z,1.80
2018-07-04T02:39:25.724Z,1.90
2018-07-04T02:42:04.843Z,2.00
2018-07-04T02:44:44.193Z,1.90
2018-07-04T02:47:26.267Z,2.07
2018-07-04T02:50:05.837Z,2.00
2018-07-04T02:52:45.187Z,2.07
2018-07-04T02:55:24.590Z,2.00
2018-07-04T02:58:03.570Z,2.00
2018-07-04T03:00:42.764Z,1.90
2018-07-04T03:03:22.140Z,2.00
2018-07-04T03:06:01.434Z,2.20
2018-07-04T03:08:40.804Z,2.10
2018-07-04T03:11:20.118Z,2.00
2018-07-04T03:13:59.216Z,1.70
2018-07-04T03:16:38.451Z,2.10
2018-07-04T03:19:17.744Z,2.20
2018-07-04T03:21:56.758Z,2.00
2018-07-04T03:24:36.076Z,2.00
2018-07-04T03:27:15.266Z,1.80
2018-07-04T03:29:54.562Z,1.87
2018-07-04T03:32:33.851Z,1.67
2018-07-04T03:35:13.098Z,2.00
2018-07-04T03:37:52.309Z,1.90
2018-07-04T03:40:31.398Z,2.00
2018-07-04T03:43:10.700Z,2.40
2018-07-04T03:45:50.099Z,2.10
2018-07-04T03:48:29.102Z,2.27
2018-07-04T03:51:08.434Z,2.20
2018-07-04T03:53:47.603Z,2.40
2018-07-04T03:56:26.730Z,2.00
2018-07-04T03:59:00.017Z,2.50
2018-07-04T04:01:39.043Z,2.00
2018-07-04T04:04:18.165Z,1.60
2018-07-04T04:06:57.199Z,1.87
2018-07-04T04:09:36.338Z,2.13
2018-07-04T04:12:15.661Z,2.40
2018-07-04T04:14:54.917Z,1.87
2018-07-04T04:17:34.094Z,1.90
2018-07-04T04:20:13.268Z,2.10
2018-07-04T04:22:52.371Z,2.07
2018-07-04T04:25:31.388Z,2.10
2018-07-04T04:28:10.621Z,2.10
2018-07-04T04:30:49.830Z,2.00
2018-07-04T04:33:28.927Z,2.00
2018-07-04T04:36:08.030Z,1.90
2018-07-04T04:38:47.146Z,2.30
2018-07-04T04:41:26.201Z,2.03
2018-07-04T04:44:05.321Z,2.03
2018-07-04T04:46:44.232Z,2.50
2018-07-04T04:49:23.362Z,2.30
2018-07-04T04:52:02.553Z,2.67
2018-07-04T04:54:41.833Z,2.03
2018-07-04T04:57:20.896Z,2.00
2018-07-04T05:00:00.364Z,1.87
2018-07-04T05:02:42.650Z,2.70
2018-07-04T05:05:21.718Z,2.37
2018-07-04T05:08:00.544Z,2.20
2018-07-04T05:10:39.325Z,2.30
2018-07-04T05:13:18.552Z,2.10
2018-07-04T05:15:58.785Z,2.30
2018-07-04T05:18:37.651Z,2.10
2018-07-04T05:21:16.994Z,2.17
2018-07-04T05:23:56.672Z,2.10
2018-07-04T05:26:36.374Z,2.53
2018-07-04T05:29:15.411Z,2.30
2018-07-04T05:31:54.488Z,1.90
2018-07-04T05:34:33.412Z,1.90
2018-07-04T05:37:12.440Z,2.17
2018-07-04T05:39:51.379Z,2.10
2018-07-04T05:42:30.080Z,1.80
2018-07-04T05:45:09.231Z,2.00
2018-07-04T06:01:04.125Z,2.10
2018-07-04T06:03:45.347Z,2.00
2018-07-04T06:06:24.229Z,2.10
2018-07-04T06:09:04.272Z,1.97
2018-07-04T06:11:43.083Z,1.90
2018-07-04T06:14:22.122Z,1.70
2018-07-04T06:17:01.250Z,1.80
2018-07-04T06:19:40.160Z,1.80
2018-07-04T06:22:19.375Z,1.53
2018-07-04T06:24:58.384Z,2.30
2018-07-04T06:27:37.522Z,2.23
2018-07-04T06:30:16.799Z,1.93
2018-07-04T06:32:55.978Z,2.83
2018-07-04T06:35:35.033Z,2.30
2018-07-04T06:38:01.694Z,1.70
2018-07-04T06:40:28.349Z,2.10
2018-07-04T06:42:55.101Z,1.80
2018-07-04T06:45:21.680Z,2.55
2018-07-04T06:47:48.300Z,2.00
2018-07-04T06:50:14.938Z,1.72
2018-07-04T06:52:41.650Z,2.05
2018-07-04T06:55:08.317Z,2.15
2018-07-04T06:57:34.962Z,2.55
2018-07-04T07:00:01.776Z,2.55
2018-07-04T07:02:28.396Z,2.30
2018-07-04T07:05:07.232Z,3.02
2018-07-04T07:07:46.488Z,3.52
2018-07-04T07:10:29.044Z,1.50
2018-07-04T07:13:02.403Z,1.70
2018-07-04T07:15:42.484Z,1.57
2018-07-04T07:18:21.739Z,1.70
2018-07-04T07:21:13.603Z,1.90
2018-07-04T07:23:52.842Z,1.77
2018-07-04T07:26:32.072Z,2.27
2018-07-04T07:29:11.280Z,2.08
2018-07-04T07:31:50.526Z,1.95
2018-07-04T07:34:29.543Z,1.70
2018-07-04T07:37:08.723Z,1.75
2018-07-04T07:39:47.930Z,1.67
2018-07-04T07:42:26.915Z,2.30
2018-07-04T07:45:05.928Z,1.50
2018-07-04T07:47:44.990Z,1.75
2018-07-04T07:50:23.963Z,2.50
2018-07-04T07:53:02.966Z,1.67
2018-07-04T07:55:42.195Z,1.70
2018-07-04T07:58:21.388Z,3.33
2018-07-04T08:01:00.687Z,1.40
2018-07-04T08:03:39.685Z,2.10
2018-07-04T08:06:18.653Z,1.45
2018-07-04T08:09:00.334Z,1.57
2018-07-04T08:11:39.422Z,1.42
2018-07-04T08:14:18.595Z,1.40
2018-07-04T08:16:57.721Z,1.77
2018-07-04T08:19:37.024Z,1.40
2018-07-04T08:22:16.197Z,1.55
2018-07-04T08:24:55.284Z,1.60
2018-07-04T08:27:34.380Z,1.37
2018-07-04T08:30:13.478Z,1.40
2018-07-04T08:32:52.598Z,1.40
2018-07-04T08:35:31.753Z,1.43
2018-07-04T08:38:11.062Z,1.80
2018-07-04T08:40:50.199Z,1.40
2018-07-04T08:43:29.377Z,1.20
2018-07-04T08:46:08.724Z,1.60
2018-07-04T08:48:49.537Z,1.37
2018-07-04T08:51:28.921Z,1.93
2018-07-04T08:54:08.108Z,1.67
2018-07-04T08:56:47.359Z,1.20
2018-07-04T08:59:30.867Z,1.10
2018-07-04T09:02:03.963Z,1.40
2018-07-04T09:04:43.135Z,1.40
2018-07-04T09:07:22.064Z,1.47
2018-07-04T09:10:01.201Z,1.40
2018-07-04T09:12:40.395Z,1.40
2018-07-04T09:15:19.575Z,1.40
2018-07-04T09:17:58.625Z,1.40
2018-07-04T09:20:37.748Z,1.30
2018-07-04T09:23:17.004Z,1.23
2018-07-04T09:25:56.081Z,1.30
2018-07-04T09:28:35.117Z,1.43
2018-07-04T09:31:14.394Z,1.30
2018-07-04T09:33:53.365Z,1.10
2018-07-04T09:36:32.593Z,1.07
2018-07-04T09:39:12.817Z,1.10
2018-07-04T09:41:52.026Z,1.20
2018-07-04T09:44:31.113Z,1.10
2018-07-04T09:47:10.331Z,1.10
2018-07-04T09:49:49.590Z,1.00
2018-07-04T09:52:28.751Z,1.30
2018-07-04T09:55:08.039Z,3.00
2018-07-04T09:57:54.425Z,2.00
2018-07-04T10:00:38.018Z,1.30
2018-07-04T10:03:17.643Z,1.17
2018-07-04T10:05:56.825Z,1.30
2018-07-04T10:08:36.057Z,1.60
2018-07-04T10:11:15.120Z,1.20
2018-07-04T10:13:54.222Z,1.17
2018-07-04T10:16:33.351Z,1.17
2018-07-04T10:19:06.655Z,1.30
2018-07-04T10:21:45.647Z,1.10
2018-07-04T10:24:24.851Z,1.17
2018-07-04T10:27:04.118Z,1.23
2018-07-04T10:29:43.223Z,1.00
2018-07-04T10:32:22.375Z,1.50
2018-07-04T10:35:01.332Z,1.20
2018-07-04T10:37:40.470Z,1.00
2018-07-04T10:40:19.572Z,1.10
2018-07-04T10:42:58.725Z,2.10
2018-07-04T10:45:37.914Z,1.40
2018-07-04T10:48:16.870Z,1.30
2018-07-04T10:50:56.110Z,1.07
2018-07-04T10:53:35.026Z,1.10
2018-07-04T10:56:16.053Z,1.10
2018-07-04T10:58:55.194Z,1.27
2018-07-04T11:01:34.265Z,1.00
2018-07-04T11:04:13.402Z,0.90
2018-07-04T11:06:52.602Z,0.90
2018-07-04T11:09:31.649Z,1.00
2018-07-04T11:12:10.792Z,1.30
2018-07-04T11:14:50.047Z,1.60
2018-07-04T11:17:29.263Z,1.10
2018-07-04T11:20:08.275Z,1.10
2018-07-04T11:22:47.422Z,1.20
2018-07-04T11:25:26.474Z,1.17
2018-07-04T11:28:05.516Z,1.30
2018-07-04T11:30:44.518Z,1.20
2018-07-04T11:33:23.504Z,1.73
2018-07-04T11:36:02.644Z,1.20
2018-07-04T11:38:42.045Z,1.40
2018-07-04T11:41:21.129Z,1.40
2018-07-04T11:44:00.240Z,1.20
2018-07-04T11:46:27.011Z,1.60
2018-07-04T11:48:53.741Z,1.40
2018-07-04T11:51:21.477Z,1.20
2018-07-04T11:53:53.997Z,1.20
2018-07-04T11:56:20.694Z,1.50
2018-07-04T11:58:47.351Z,1.40
2018-07-04T12:01:14.525Z,1.27
2018-07-04T12:03:53.723Z,1.20
2018-07-04T12:06:32.786Z,1.30
2018-07-04T12:09:00.309Z,1.10
2018-07-04T12:11:27.923Z,1.20
2018-07-04T12:13:54.522Z,1.47
2018-07-04T12:16:21.242Z,1.40
2018-07-04T12:18:48.519Z,1.50
2018-07-04T12:21:15.216Z,1.23
2018-07-04T12:23:41.955Z,1.27
2018-07-04T12:26:08.669Z,1.40
2018-07-04T12:28:35.304Z,1.70
2018-07-04T12:31:01.934Z,1.90
2018-07-04T12:33:28.512Z,2.97
2018-07-04T12:35:55.202Z,2.00
2018-07-04T12:38:22.177Z,2.63
2018-07-04T12:40:48.820Z,3.58
2018-07-04T12:43:15.449Z,2.50
2018-07-04T12:45:42.151Z,2.85
2018-07-04T12:48:08.768Z,2.30
2018-07-04T12:50:35.383Z,1.70
2018-07-04T12:53:02.097Z,1.72
2018-07-04T12:55:42.811Z,2.73
2018-07-04T12:58:22.235Z,1.93
2018-07-04T13:01:01.465Z,1.85
2018-07-04T13:03:40.622Z,1.77
2018-07-04T13:06:20.207Z,1.75
2018-07-04T13:09:00.347Z,1.95
2018-07-04T13:11:39.450Z,1.53
2018-07-04T13:14:19.385Z,1.80
2018-07-04T13:16:58.353Z,1.90
2018-07-04T13:19:37.555Z,1.60
2018-07-04T13:22:16.495Z,1.83
2018-07-04T13:24:55.809Z,1.60
2018-07-04T13:27:34.841Z,1.57
2018-07-04T13:30:14.040Z,2.97
2018-07-04T13:32:53.341Z,2.17
2018-07-04T13:35:32.521Z,2.13
2018-07-04T13:38:11.626Z,1.73
2018-07-04T13:40:50.812Z,2.00
2018-07-04T13:43:29.961Z,1.93
2018-07-04T13:46:12.733Z,2.00
2018-07-04T13:48:51.789Z,1.80
2018-07-04T13:51:30.752Z,1.77
2018-07-04T13:54:09.646Z,2.07
2018-07-04T13:56:50.042Z,1.70
2018-07-04T13:59:29.206Z,2.00
2018-07-04T14:02:08.664Z,1.93
2018-07-04T14:04:47.834Z,1.80
2018-07-04T14:07:26.905Z,1.53
2018-07-04T14:10:06.064Z,1.50
2018-07-04T14:12:45.270Z,1.70
2018-07-04T14:15:24.832Z,1.87
2018-07-04T14:18:03.927Z,1.60
2018-07-04T14:20:43.334Z,1.83
2018-07-04T14:23:22.555Z,1.50
2018-07-04T14:26:01.722Z,1.77
2018-07-04T14:28:40.744Z,1.77
2018-07-04T14:31:15.476Z,2.13
2018-07-04T14:33:54.718Z,2.00
2018-07-04T14:36:33.902Z,1.80
2018-07-04T14:39:13.198Z,1.80
2018-07-04T14:41:52.335Z,2.00
2018-07-04T14:44:31.704Z,2.20
2018-07-04T14:47:10.979Z,2.30
2018-07-04T14:49:50.015Z,1.77
2018-07-04T14:52:30.156Z,2.03
2018-07-04T14:55:09.229Z,2.00
2018-07-04T14:57:48.555Z,2.77
2018-07-04T15:00:27.424Z,1.93
2018-07-04T15:03:06.520Z,1.93
2018-07-04T15:05:45.618Z,2.03
2018-07-04T15:08:24.800Z,1.93
2018-07-04T15:11:03.777Z,1.80
2018-07-04T15:13:42.930Z,1.90
2018-07-04T15:16:22.376Z,1.80
2018-07-04T15:19:01.523Z,1.70
2018-07-04T15:21:40.582Z,1.80
2018-07-04T15:24:19.710Z,1.50
2018-07-04T15:26:58.884Z,1.50
2018-07-04T15:29:41.885Z,2.40
2018-07-04T15:32:21.140Z,1.70
2018-07-04T15:35:01.775Z,1.43
2018-07-04T15:37:40.885Z,1.80
2018-07-04T15:40:20.055Z,1.70
2018-07-04T15:42:53.547Z,1.70
2018-07-04T15:45:32.707Z,1.90
2018-07-04T15:48:12.301Z,1.63
2018-07-04T15:50:52.051Z,1.90
2018-07-04T15:53:31.140Z,1.80
2018-07-04T15:56:10.152Z,1.77
2018-07-04T15:58:49.718Z,1.70
2018-07-04T16:01:30.762Z,1.90
2018-07-04T16:04:10.074Z,1.67
2018-07-04T16:06:50.277Z,1.50
2018-07-04T16:09:29.289Z,1.70
2018-07-04T16:12:08.426Z,5.47
2018-07-04T16:14:48.142Z,1.87
2018-07-04T16:17:27.380Z,1.70
2018-07-04T16:20:06.555Z,1.73
2018-07-04T16:22:45.831Z,1.70
2018-07-04T16:25:25.184Z,1.73
2018-07-04T16:28:04.204Z,2.00
2018-07-04T16:30:43.636Z,1.80
2018-07-04T16:33:22.720Z,2.07
2018-07-04T16:36:01.847Z,1.50
2018-07-04T16:38:42.078Z,1.50
2018-07-04T16:41:24.525Z,1.53
2018-07-04T16:44:03.661Z,1.80
2018-07-04T16:46:42.920Z,1.50
2018-07-04T16:49:21.929Z,1.50
2018-07-04T16:52:01.101Z,1.53
2018-07-04T16:54:40.204Z,1.30
2018-07-04T16:57:19.618Z,2.50
2018-07-04T16:59:58.833Z,1.53
2018-07-04T17:02:37.907Z,1.60
2018-07-04T17:05:17.303Z,1.50
2018-07-04T17:07:56.334Z,1.90
2018-07-04T17:10:35.711Z,1.40
2018-07-04T17:13:14.626Z,1.50
2018-07-04T17:15:53.911Z,1.80
2018-07-04T17:18:32.952Z,1.53
2018-07-04T17:21:11.956Z,1.60
2018-07-04T17:23:51.124Z,1.47
2018-07-04T17:26:30.344Z,1.83
2018-07-04T17:29:09.533Z,1.90
2018-07-04T17:31:48.870Z,1.70
2018-07-04T17:34:28.342Z,1.60
2018-07-04T17:37:07.454Z,1.60
2018-07-04T17:39:46.668Z,1.63
2018-07-04T17:42:26.314Z,1.67
2018-07-04T17:45:05.502Z,1.80
2018-07-04T17:47:44.765Z,2.03
2018-07-04T17:50:24.346Z,1.73
2018-07-04T17:53:03.336Z,1.50
2018-07-04T17:55:42.644Z,1.90
2018-07-04T17:58:21.749Z,1.83
2018-07-04T18:01:00.852Z,2.10
2018-07-04T18:03:40.180Z,1.73
2018-07-04T18:06:19.256Z,1.80
2018-07-04T18:08:58.475Z,1.83
2018-07-04T18:11:40.515Z,1.70
2018-07-04T18:14:19.829Z,1.80
2018-07-04T18:16:59.158Z,1.77
2018-07-04T18:19:38.145Z,1.60
2018-07-04T18:22:17.940Z,1.87
2018-07-04T18:24:57.101Z,1.70
2018-07-04T18:27:36.601Z,1.60
2018-07-04T18:30:15.770Z,2.00
2018-07-04T18:32:55.039Z,1.83
2018-07-04T18:35:34.328Z,1.60
2018-07-04T18:38:13.599Z,2.00
2018-07-04T18:40:53.193Z,2.03
2018-07-04T18:43:32.357Z,1.80
2018-07-04T18:46:11.395Z,1.83
2018-07-04T18:48:50.638Z,1.83
2018-07-04T18:51:29.811Z,2.10
2018-07-04T18:54:08.992Z,1.77
2018-07-04T18:56:48.254Z,1.70
2018-07-04T18:59:27.377Z,1.93
2018-07-04T19:02:06.709Z,1.83
2018-07-04T19:04:46.047Z,2.20
2018-07-04T19:07:25.418Z,2.30
2018-07-04T19:10:04.677Z,1.90
2018-07-04T19:12:44.785Z,2.10
2018-07-04T19:15:24.589Z,2.00
2018-07-04T19:18:03.753Z,2.00
2018-07-04T19:20:43.054Z,1.77
2018-07-04T19:23:22.588Z,2.10
2018-07-04T19:26:01.820Z,2.40
2018-07-04T19:28:41.035Z,1.90
2018-07-04T19:31:20.246Z,2.10
2018-07-04T19:33:59.457Z,3.03
2018-07-04T19:36:38.511Z,2.67
2018-07-04T19:39:17.851Z,2.67
2018-07-04T19:41:57.123Z,3.33
2018-07-04T19:44:36.213Z,2.63
2018-07-04T19:47:15.610Z,2.30
2018-07-04T19:49:54.910Z,3.20
2018-07-04T19:52:34.082Z,4.00
2018-07-04T19:55:13.967Z,5.10
2018-07-04T19:57:47.288Z,6.53
2018-07-04T20:00:26.546Z,6.83
2018-07-04T20:03:05.752Z,4.90
2018-07-04T20:05:44.905Z,4.20
2018-07-04T20:08:24.211Z,4.07
2018-07-04T20:11:03.385Z,3.90
2018-07-04T20:13:42.454Z,4.07
2018-07-04T20:16:21.930Z,4.63
2018-07-04T20:19:01.084Z,4.10
2018-07-04T20:21:40.311Z,4.70
2018-07-04T20:24:19.428Z,4.43
2018-07-04T20:26:58.519Z,3.90
2018-07-04T20:29:37.862Z,3.37
2018-07-04T20:32:17.038Z,3.40
2018-07-04T20:34:56.245Z,3.70
2018-07-04T20:37:35.452Z,4.07
2018-07-04T20:40:14.828Z,4.20
2018-07-04T20:42:53.750Z,3.87
2018-07-04T20:45:32.806Z,3.40
2018-07-04T20:48:12.074Z,3.20
2018-07-04T20:50:51.242Z,3.30
2018-07-04T20:53:30.313Z,3.00
2018-07-04T20:56:09.696Z,2.90
2018-07-04T20:58:48.902Z,3.40
2018-07-04T21:01:29.067Z,2.97
2018-07-04T21:04:08.483Z,3.07
2018-07-04T21:06:49.255Z,2.83
2018-07-04T21:09:28.480Z,3.17
2018-07-04T21:12:07.686Z,4.43
2018-07-04T21:14:46.938Z,3.90
2018-07-04T21:17:26.153Z,3.90
2018-07-04T21:20:05.455Z,3.63
2018-07-04T21:22:45.915Z,3.50
2018-07-04T21:25:25.096Z,3.67
2018-07-04T21:27:58.361Z,3.50
2018-07-04T21:30:37.686Z,3.80
2018-07-04T21:33:16.830Z,3.33
2018-07-04T21:35:55.984Z,3.60
2018-07-04T21:38:35.168Z,4.07
2018-07-04T21:41:15.036Z,5.07
2018-07-04T21:43:54.433Z,4.67
2018-07-04T21:46:35.901Z,4.13
2018-07-04T21:49:15.343Z,3.97
2018-07-04T21:51:54.788Z,3.83
2018-07-04T21:54:34.330Z,4.07
2018-07-04T21:57:14.891Z,3.47
2018-07-04T21:59:54.082Z,3.93
2018-07-04T22:02:33.195Z,3.80
2018-07-04T22:05:07.957Z,3.77
2018-07-04T22:07:47.100Z,3.70
2018-07-04T22:10:26.641Z,3.37
2018-07-04T22:13:06.493Z,3.30
2018-07-04T22:15:45.677Z,3.20
2018-07-04T22:18:25.218Z,3.00
2018-07-04T22:21:04.373Z,3.50
2018-07-04T22:23:43.630Z,3.37
2018-07-04T22:26:23.859Z,2.90
2018-07-04T22:29:03.495Z,2.80
2018-07-04T22:31:42.964Z,3.13
2018-07-04T22:34:23.934Z,4.83
2018-07-04T22:37:02.948Z,4.70
2018-07-04T22:39:42.027Z,5.90
2018-07-04T22:42:21.217Z,6.30
2018-07-04T22:45:00.288Z,5.90
2018-07-04T22:47:39.632Z,4.93
2018-07-04T22:50:18.960Z,4.77
2018-07-04T22:52:57.956Z,4.80
2018-07-04T22:55:37.035Z,4.80
2018-07-04T22:58:16.059Z,4.07
2018-07-04T23:00:55.083Z,4.27
2018-07-04T23:03:34.173Z,4.77
2018-07-04T23:06:13.358Z,13.40
2018-07-04T23:08:52.495Z,10.90
2018-07-04T23:11:31.647Z,7.87
2018-07-04T23:14:11.045Z,7.63
2018-07-04T23:16:50.208Z,7.50
2018-07-04T23:19:29.388Z,7.43
2018-07-04T23:22:08.352Z,5.70
2018-07-04T23:24:47.508Z,5.70
2018-07-04T23:27:26.418Z,5.40
2018-07-04T23:30:05.590Z,4.80
2018-07-04T23:32:44.675Z,4.63
2018-07-04T23:35:23.984Z,4.27
2018-07-04T23:38:02.940Z,4.30
2018-07-04T23:40:42.050Z,5.90
2018-07-04T23:43:21.137Z,6.43
2018-07-04T23:46:00.438Z,6.50
2018-07-04T23:48:39.523Z,4.43
2018-07-04T23:51:18.994Z,4.20
2018-07-04T23:53:57.977Z,3.60
2018-07-04T23:56:37.000Z,4.17
2018-07-04T23:59:16.079Z,3.53
